KDYT

Sky Harbor Airport

Duluth, Minnesota, USA
METAR KDYT 222036Z AUTO 28021KT 10SM BKN070 11/M01 A3000 RMK AO2
Observed Flight Rules
Oct-22 @ 20:36 UTC (13 minutes ago) Visual Flight Rules
Wind Visibility Clouds
280° at 21 knots 10 miles
  • Broken at 7,000' AGL
Temperatures Readings
Current 11°C / 52°F
Dewpoint -1°C / 30°F
Humidity 44%
Altimeter 30" Hg
Pressure 1016 hPa
Elevation 186
METAR KDYT 222036Z AUTO 28021KT 10SM BKN070 11/M01 A3000 RMK AO2
Observed Flight Rules
Oct-22 @ 20:36 UTC
(13 minutes ago)
VFR
Wind Visibility
280° at 21 knots 10 miles
Clouds
  • Broken at 7,000' AGL
Temperature Dewpoint
11°C / 52°F -1°C / 30°F
Humidity Altimeter Pressure
44% 30" Hg 1016 hPa